Time;durP1;ratioP1;P1;durP2;ratioP2;P2;SDS_P1;SDS_P2;PMS_P1;PMS_P2;Temp;Humidity;BMP_temperature;BMP_pressure;BME280_temperature;BME280_humidity;BME280_pressure;Samples;Min_cycle;Max_cycle;Signal;HPM_P1;HPM_P2
2023/09/22 00:00:38;;;;;;;;;1.00;1.00;;;;;15.70;72.78;99671.31;5056611;28;45400;-40
2023/09/22 00:03:05;;;;;;;;;0.00;0.00;;;;;15.76;72.69;99693.78;5057045;28;45514;-39
2023/09/22 00:05:30;;;;;;;;;0.00;0.00;;;;;15.73;73.78;99686.19;5056675;28;46076;-40
2023/09/22 00:07:55;;;;;;;;;1.00;0.25;;;;;15.73;73.89;99678.97;5056559;28;45364;-39
2023/09/22 00:10:21;;;;;;;;;0.00;0.00;;;;;15.77;73.70;99688.25;5056958;28;45309;-41
2023/09/22 00:12:46;;;;;;;;;2.00;0.00;;;;;15.70;73.75;99685.56;5057023;28;45512;-43
2023/09/22 00:15:12;;;;;;;;;0.00;0.00;;;;;15.68;73.98;99684.94;5056430;28;47158;-46
2023/09/22 00:17:37;;;;;;;;;0.00;0.00;;;;;15.69;73.95;99683.09;5056277;28;45376;-40
2023/09/22 00:20:07;;;;;;;;;0.00;0.00;;;;;15.60;74.00;99676.25;5056530;28;45350;-41
2023/09/22 00:22:33;;;;;;;;;0.00;0.00;;;;;15.60;74.29;99678.94;5056530;28;45476;-43
2023/09/22 00:24:58;;;;;;;;;0.00;0.00;;;;;15.62;73.36;99682.22;5056131;28;46051;-46
2023/09/22 00:27:23;;;;;;;;;0.00;0.00;;;;;15.59;74.10;99677.25;5056092;28;48507;-47
2023/09/22 00:29:48;;;;;;;;;1.50;0.00;;;;;15.56;73.93;99677.69;5056556;28;45419;-50
2023/09/22 00:32:14;;;;;;;;;1.00;1.00;;;;;15.53;73.80;99673.56;5056645;28;45448;-50
2023/09/22 00:34:39;;;;;;;;;2.00;0.00;;;;;15.51;73.56;99674.81;5056111;28;47056;-50
2023/09/22 00:37:05;;;;;;;;;2.00;0.50;;;;;15.48;73.18;99681.38;5056079;28;45658;-47
2023/09/22 00:39:30;;;;;;;;;1.00;1.00;;;;;15.45;73.90;99687.16;5056161;28;45437;-43
2023/09/22 00:41:56;;;;;;;;;0.00;0.00;;;;;15.43;73.88;99676.66;5038484;28;45431;-46
2023/09/22 00:44:22;;;;;;;;;2.50;1.00;;;;;15.48;73.64;99682.22;5056206;28;45304;-47
2023/09/22 00:46:47;;;;;;;;;1.00;1.00;;;;;15.51;73.50;99685.53;5055760;28;45516;-44
2023/09/22 00:49:13;;;;;;;;;0.50;0.00;;;;;15.37;73.45;99668.59;5055592;28;45348;-41
2023/09/22 00:51:39;;;;;;;;;0.00;0.00;;;;;15.50;73.55;99683.84;5056596;28;45505;-45
2023/09/22 00:54:05;;;;;;;;;1.50;0.00;;;;;15.50;73.25;99679.31;5056207;28;45399;-41
2023/09/22 00:56:30;;;;;;;;;0.75;0.75;;;;;15.54;73.44;99690.47;5056237;28;45423;-46
2023/09/22 00:58:56;;;;;;;;;2.00;0.00;;;;;15.51;73.19;99682.84;5056196;28;45434;-44
2023/09/22 01:01:23;;;;;;;;;0.00;0.00;;;;;15.51;72.85;99686.34;5056273;28;45206;-46
2023/09/22 01:03:51;;;;;;;;;4.00;1.00;;;;;15.52;72.56;99679.94;5056231;28;46382;-48
2023/09/22 01:06:17;;;;;;;;;2.00;0.00;;;;;15.43;72.48;99662.44;5056036;28;45487;-46
2023/09/22 01:08:43;;;;;;;;;0.00;0.00;;;;;15.46;72.59;99670.88;5056194;28;45886;-40
2023/09/22 01:11:08;;;;;;;;;0.00;0.00;;;;;15.44;72.83;99674.78;5056261;28;45316;-45
2023/09/22 01:13:33;;;;;;;;;0.25;0.00;;;;;15.40;72.80;99685.09;5055643;28;47183;-49
2023/09/22 01:15:59;;;;;;;;;0.75;0.75;;;;;15.37;72.84;99679.31;5055840;28;45269;-46
2023/09/22 01:18:24;;;;;;;;;0.00;0.00;;;;;15.30;73.05;99681.16;5055857;28;45422;-48
2023/09/22 01:20:49;;;;;;;;;0.00;0.00;;;;;15.25;72.88;99688.97;5056061;28;45760;-40
2023/09/22 01:23:15;;;;;;;;;0.33;0.33;;;;;15.25;73.19;99687.09;5055875;28;45368;-39
2023/09/22 01:25:45;;;;;;;;;0.00;0.00;;;;;15.20;73.03;99682.34;5037655;28;45555;-38
2023/09/22 01:28:11;;;;;;;;;1.00;1.00;;;;;15.05;73.33;99648.75;5056178;28;45719;-39
2023/09/22 01:30:38;;;;;;;;;0.00;0.00;;;;;15.14;72.90;99667.09;5055932;28;45391;-40
2023/09/22 01:33:04;;;;;;;;;0.00;0.00;;;;;15.16;73.04;99667.72;5054610;28;45416;-40
2023/09/22 01:35:33;;;;;;;;;1.00;1.00;;;;;15.16;73.47;99673.06;5055608;28;45456;-40
2023/09/22 01:38:11;;;;;;;;;0.00;0.00;;;;;15.23;73.12;99668.56;5055869;28;45404;-40
2023/09/22 01:40:37;;;;;;;;;0.00;0.00;;;;;15.28;72.71;99667.97;5056077;28;45331;-41
2023/09/22 01:43:03;;;;;;;;;0.33;0.33;;;;;15.33;72.20;99670.03;5055577;28;46295;-39
2023/09/22 01:45:29;;;;;;;;;1.33;0.00;;;;;15.36;72.07;99672.31;5055527;28;45436;-48
2023/09/22 01:47:54;;;;;;;;;0.50;0.00;;;;;15.39;72.00;99674.59;5057629;28;45545;-48
2023/09/22 01:50:19;;;;;;;;;2.00;1.00;;;;;15.42;71.95;99674.16;5059348;28;45440;-42
2023/09/22 01:52:45;;;;;;;;;0.00;0.00;;;;;15.46;71.58;99673.56;5059297;28;46398;-47
2023/09/22 01:55:11;;;;;;;;;2.75;1.00;;;;;15.48;71.61;99678.72;5058874;28;45400;-41
2023/09/22 01:57:36;;;;;;;;;2.00;1.00;;;;;15.47;71.28;99669.84;5059061;28;45269;-40
2023/09/22 02:00:10;;;;;;;;;0.00;0.00;;;;;15.51;71.12;99667.59;5059284;28;45415;-41
2023/09/22 02:02:36;;;;;;;;;1.00;0.00;;;;;15.51;71.37;99674.81;5058448;28;46509;-41
2023/09/22 02:05:02;;;;;;;;;1.00;1.00;;;;;15.52;71.18;99679.94;5058996;28;45390;-41
2023/09/22 02:07:28;;;;;;;;;0.00;0.00;;;;;15.54;71.21;99682.41;5058781;28;45494;-41
2023/09/22 02:09:53;;;;;;;;;0.25;0.00;;;;;15.57;71.17;99685.53;5059372;28;45370;-39
2023/09/22 02:12:19;;;;;;;;;0.00;0.00;;;;;15.57;70.77;99688.19;5058673;28;46286;-38
2023/09/22 02:14:44;;;;;;;;;1.50;0.00;;;;;15.45;70.76;99668.38;5058869;28;45356;-41
2023/09/22 02:17:09;;;;;;;;;1.00;1.00;;;;;15.57;70.43;99692.75;5058489;28;45628;-38
2023/09/22 02:19:35;;;;;;;;;0.00;0.00;;;;;15.28;70.61;99649.19;5059159;28;45196;-45
2023/09/22 02:22:01;;;;;;;;;0.00;0.00;;;;;15.54;70.24;99683.25;5040733;28;47629;-40
2023/09/22 02:24:26;;;;;;;;;1.00;0.50;;;;;15.46;70.25;99689.66;5059019;28;45401;-47
2023/09/22 02:26:52;;;;;;;;;0.50;0.50;;;;;15.55;70.06;99684.06;5059135;28;45261;-41
2023/09/22 02:29:17;;;;;;;;;0.00;0.00;;;;;15.56;70.21;99686.56;5059473;28;45399;-40
2023/09/22 02:31:42;;;;;;;;;0.67;0.67;;;;;15.49;69.92;99675.00;5058657;28;46280;-41
2023/09/22 02:34:08;;;;;;;;;0.00;0.00;;;;;15.38;70.05;99657.69;5058295;28;45359;-41
2023/09/22 02:36:33;;;;;;;;;5.00;1.00;;;;;15.47;70.10;99687.78;5058096;28;45402;-39
2023/09/22 02:38:58;;;;;;;;;0.00;0.00;;;;;15.28;69.98;99672.50;5058565;28;45312;-41
2023/09/22 02:41:24;;;;;;;;;0.00;0.00;;;;;15.40;70.14;99694.97;5058134;28;45920;-40
2023/09/22 02:43:49;;;;;;;;;1.00;0.00;;;;;15.36;70.29;99699.09;5058479;28;45369;-40
2023/09/22 02:46:14;;;;;;;;;0.50;0.50;;;;;15.25;70.24;99697.81;5058307;28;45834;-42
2023/09/22 02:48:40;;;;;;;;;2.00;0.00;;;;;15.21;70.27;99688.53;5058411;28;45571;-39
2023/09/22 02:51:07;;;;;;;;;3.00;0.00;;;;;15.26;70.38;99698.69;5039881;28;46291;-42
2023/09/22 02:53:32;;;;;;;;;1.00;0.00;;;;;15.23;70.38;99703.41;5057899;28;45343;-39
2023/09/22 02:56:05;;;;;;;;;0.00;0.00;;;;;15.18;70.42;99699.69;5058318;28;45439;-41
2023/09/22 02:58:31;;;;;;;;;2.00;0.00;;;;;15.17;70.85;99701.53;5057374;28;45407;-42
2023/09/22 03:00:56;;;;;;;;;4.67;1.00;;;;;15.16;70.72;99694.50;5057445;28;47051;-41
2023/09/22 03:03:21;;;;;;;;;1.00;1.00;;;;;15.16;70.60;99691.81;5057828;28;46073;-40
2023/09/22 03:05:47;;;;;;;;;1.00;1.00;;;;;15.15;70.52;99692.88;5058190;28;45366;-40
2023/09/22 03:08:12;;;;;;;;;1.00;1.00;;;;;15.03;70.68;99677.56;5058329;28;45373;-40
2023/09/22 03:10:41;;;;;;;;;0.67;0.67;;;;;15.08;70.62;99692.00;5057663;28;46103;-39
2023/09/22 03:13:06;;;;;;;;;1.00;1.00;;;;;15.06;70.80;99680.69;5057685;28;45292;-42
2023/09/22 03:15:34;;;;;;;;;2.67;0.00;;;;;15.05;70.91;99691.63;5057837;28;45780;-38
2023/09/22 03:17:59;;;;;;;;;1.00;1.00;;;;;15.03;70.74;99686.44;5057706;28;45529;-41
2023/09/22 03:20:25;;;;;;;;;1.00;1.00;;;;;14.98;70.60;99683.53;5057526;28;45912;-39
2023/09/22 03:22:51;;;;;;;;;1.00;1.00;;;;;14.93;71.22;99683.31;5057337;28;45401;-42
2023/09/22 03:25:17;;;;;;;;;1.00;1.00;;;;;14.88;71.27;99685.78;5057764;28;45731;-39
2023/09/22 03:27:42;;;;;;;;;2.33;0.00;;;;;14.86;71.48;99693.19;5057693;28;45381;-39
2023/09/22 03:30:09;;;;;;;;;2.33;1.33;;;;;14.76;71.38;99685.53;5057517;28;45575;-40
2023/09/22 03:32:35;;;;;;;;;0.00;0.00;;;;;14.76;71.35;99700.78;5039045;28;45360;-41
2023/09/22 03:35:05;;;;;;;;;4.00;0.00;;;;;14.69;71.53;99701.53;5057454;28;45510;-41
2023/09/22 03:37:32;;;;;;;;;0.67;0.00;;;;;14.68;71.99;99696.41;5057443;28;45383;-39
2023/09/22 03:39:57;;;;;;;;;2.00;0.00;;;;;14.67;71.65;99698.25;5057064;28;47319;-38
2023/09/22 03:42:24;;;;;;;;;0.00;0.00;;;;;14.55;71.66;99675.75;5057256;28;45372;-40
2023/09/22 03:44:50;;;;;;;;;0.00;0.00;;;;;14.61;71.57;99691.00;5057673;28;46480;-39
2023/09/22 03:47:15;;;;;;;;;3.00;1.00;;;;;14.60;71.82;99688.53;5039683;28;45181;-39
2023/09/22 03:49:41;;;;;;;;;2.00;2.00;;;;;14.62;71.67;99692.69;5057061;28;46032;-40
2023/09/22 03:52:06;;;;;;;;;1.00;1.00;;;;;14.61;71.91;99693.69;5057150;28;45399;-39
2023/09/22 03:54:31;;;;;;;;;0.00;0.00;;;;;14.62;71.96;99687.31;5057329;28;45399;-38
2023/09/22 03:56:57;;;;;;;;;1.00;1.00;;;;;14.67;71.58;99684.06;5057257;28;45390;-40
2023/09/22 03:59:22;;;;;;;;;2.33;1.00;;;;;14.69;71.81;99685.47;5056899;28;45293;-40
2023/09/22 04:01:48;;;;;;;;;1.00;0.00;;;;;14.66;71.91;99691.25;5057050;28;45663;-38
2023/09/22 04:04:14;;;;;;;;;2.67;0.00;;;;;14.62;72.46;99690.00;5057014;28;45422;-39
2023/09/22 04:06:39;;;;;;;;;1.00;1.00;;;;;14.63;72.37;99685.47;5057142;28;45489;-38
2023/09/22 04:09:07;;;;;;;;;3.00;1.00;;;;;14.57;72.46;99683.56;5056913;28;45722;-41
2023/09/22 04:11:33;;;;;;;;;0.00;0.00;;;;;14.52;73.22;99681.50;5056542;28;45446;-40
2023/09/22 04:13:58;;;;;;;;;2.00;1.00;;;;;14.55;73.02;99681.09;5056779;28;45310;-43
2023/09/22 04:16:24;;;;;;;;;4.00;1.33;;;;;14.53;73.39;99683.13;5057226;28;45391;-40
2023/09/22 04:18:54;;;;;;;;;3.00;1.00;;;;;14.52;73.68;99673.47;5056554;28;46088;-37
2023/09/22 04:21:22;;;;;;;;;3.00;1.00;;;;;14.51;73.93;99679.03;5056597;28;45483;-40
2023/09/22 04:23:57;;;;;;;;;2.33;1.00;;;;;14.52;73.32;99688.69;5055931;28;45297;-38
2023/09/22 04:26:29;;;;;;;;;6.00;1.00;;;;;14.50;72.95;99678.22;5056677;28;45462;-40
2023/09/22 04:28:59;;;;;;;;;2.00;2.00;;;;;14.47;73.46;99686.59;5055655;28;46396;-40
2023/09/22 04:31:25;;;;;;;;;4.00;1.33;;;;;14.50;73.34;99685.41;5056373;28;45284;-41
2023/09/22 04:33:54;;;;;;;;;4.00;2.00;;;;;14.41;73.41;99671.31;5056242;28;45339;-41
2023/09/22 04:36:22;;;;;;;;;2.00;2.00;;;;;14.47;73.77;99686.59;5056647;28;45315;-39
2023/09/22 04:38:49;;;;;;;;;2.33;2.00;;;;;14.48;73.78;99675.72;5056034;28;46034;-40
2023/09/22 04:41:14;;;;;;;;;4.00;3.00;;;;;14.50;74.08;99674.72;5056370;28;45368;-38
2023/09/22 04:43:39;;;;;;;;;1.67;1.00;;;;;14.54;73.97;99673.25;5056360;28;45166;-39
2023/09/22 04:46:05;;;;;;;;;2.00;2.00;;;;;14.46;73.54;99680.41;5055626;28;45560;-39
2023/09/22 04:48:30;;;;;;;;;3.33;3.00;;;;;14.44;73.79;99687.81;5056057;28;46224;-41
2023/09/22 04:50:55;;;;;;;;;1.33;1.33;;;;;14.43;73.99;99682.66;5056141;28;45676;-41
2023/09/22 04:53:21;;;;;;;;;4.33;2.67;;;;;14.41;73.87;99687.38;5055144;28;45375;-40
2023/09/22 04:55:48;;;;;;;;;3.67;2.00;;;;;14.40;73.92;99688.41;5056303;28;45281;-39
2023/09/22 04:58:14;;;;;;;;;5.33;2.00;;;;;14.32;74.11;99673.31;5055074;28;46392;-39
2023/09/22 05:00:40;;;;;;;;;2.00;1.00;;;;;14.35;73.73;99690.84;5055877;28;45492;-40
2023/09/22 05:03:07;;;;;;;;;3.67;1.67;;;;;14.31;73.62;99678.88;5041847;28;45447;-41
2023/09/22 05:05:33;;;;;;;;;2.00;2.00;;;;;14.33;73.80;99691.06;5036143;28;45552;-39
2023/09/22 05:07:59;;;;;;;;;3.00;1.33;;;;;14.36;74.06;99692.50;5035580;28;47042;-38
2023/09/22 05:10:24;;;;;;;;;0.33;0.33;;;;;14.36;73.74;99687.97;5035930;28;45348;-38
2023/09/22 05:12:51;;;;;;;;;5.00;1.67;;;;;14.35;73.76;99689.00;5036036;28;45373;-40
2023/09/22 05:15:16;;;;;;;;;2.67;1.00;;;;;14.41;73.99;99685.53;5035737;28;45626;-39
2023/09/22 05:17:42;;;;;;;;;1.67;1.67;;;;;14.39;73.77;99674.19;5035749;28;46160;-40
2023/09/22 05:20:13;;;;;;;;;1.67;1.67;;;;;14.47;73.61;99690.09;5035654;28;45443;-39
2023/09/22 05:22:39;;;;;;;;;2.00;1.00;;;;;14.33;73.84;99660.81;5037197;28;45150;-39
2023/09/22 05:25:05;;;;;;;;;0.00;0.00;;;;;14.50;73.92;99691.59;5039500;28;45883;-39
2023/09/22 05:27:30;;;;;;;;;1.67;1.00;;;;;14.48;73.69;99683.75;5021231;28;47589;-40
2023/09/22 05:29:56;;;;;;;;;3.33;2.00;;;;;14.52;74.21;99678.00;5039142;28;45240;-38
2023/09/22 05:32:21;;;;;;;;;1.00;1.00;;;;;14.51;74.57;99685.19;5039087;28;45661;-41
2023/09/22 05:34:46;;;;;;;;;6.00;1.00;;;;;14.51;74.53;99679.84;5039355;28;45340;-39
2023/09/22 05:37:12;;;;;;;;;3.33;3.00;;;;;14.25;74.29;99656.44;5059239;28;45376;-41
2023/09/22 05:39:38;;;;;;;;;1.67;1.00;;;;;14.47;74.34;99674.03;5059117;28;45304;-41
2023/09/22 05:42:04;;;;;;;;;1.67;1.67;;;;;14.53;74.28;99680.47;5059280;28;45438;-41
2023/09/22 05:44:30;;;;;;;;;7.33;2.00;;;;;14.44;74.37;99658.38;5059462;28;45419;-39
2023/09/22 05:46:55;;;;;;;;;4.00;2.67;;;;;14.62;74.36;99683.81;5058980;28;46423;-41
2023/09/22 05:49:22;;;;;;;;;1.00;1.00;;;;;14.63;74.35;99682.81;5059111;28;45410;-41
2023/09/22 05:51:49;;;;;;;;;1.00;1.00;;;;;14.62;74.20;99671.28;5041496;28;45484;-40
2023/09/22 05:54:14;;;;;;;;;4.00;2.67;;;;;14.60;74.54;99678.66;5059241;28;45311;-40
2023/09/22 05:56:40;;;;;;;;;2.67;2.67;;;;;14.62;74.64;99681.97;5041495;28;46289;-45
2023/09/22 05:59:06;;;;;;;;;2.00;1.33;;;;;14.63;74.36;99675.59;5059024;28;45953;-48
2023/09/22 06:01:36;;;;;;;;;3.00;2.00;;;;;14.66;74.64;99671.66;5059068;28;45301;-45
2023/09/22 06:04:04;;;;;;;;;3.00;2.00;;;;;14.63;74.63;99667.56;5058789;28;45468;-47
2023/09/22 06:06:30;;;;;;;;;4.33;2.67;;;;;14.64;75.23;99657.69;5058551;28;46183;-39
2023/09/22 06:08:56;;;;;;;;;3.33;3.33;;;;;14.72;75.10;99674.38;5058783;28;45333;-40
2023/09/22 06:11:21;;;;;;;;;3.00;1.67;;;;;14.75;75.10;99681.22;5041141;28;45792;-39
2023/09/22 06:13:47;;;;;;;;;4.67;4.00;;;;;14.75;75.18;99677.69;5057284;28;45406;-42
2023/09/22 06:16:12;;;;;;;;;2.33;1.00;;;;;14.73;75.32;99670.69;5058561;28;46270;-40
2023/09/22 06:18:37;;;;;;;;;2.33;2.33;;;;;14.75;75.23;99683.03;5058763;28;46127;-42
2023/09/22 06:21:05;;;;;;;;;5.00;2.00;;;;;14.71;76.13;99687.97;5058483;28;45570;-41
2023/09/22 06:23:31;;;;;;;;;4.00;2.00;;;;;14.60;76.65;99684.00;5058765;28;45475;-41
2023/09/22 06:26:10;;;;;;;;;2.00;2.00;;;;;14.52;77.22;99691.38;5058338;28;46050;-43
2023/09/22 06:28:35;;;;;;;;;0.67;0.67;;;;;14.40;78.09;99683.03;5058461;28;45162;-41
2023/09/22 06:31:03;;;;;;;;;2.00;2.00;;;;;14.40;78.33;99689.22;5058362;28;45416;-37
2023/09/22 06:33:32;;;;;;;;;4.00;1.33;;;;;14.34;78.21;99691.88;5058238;28;45485;-38
2023/09/22 06:36:06;;;;;;;;;2.00;2.00;;;;;14.31;78.80;99694.94;5057645;28;46299;-38
2023/09/22 06:38:33;;;;;;;;;1.00;1.00;;;;;14.29;79.70;99697.00;5058275;28;45389;-39
2023/09/22 06:41:02;;;;;;;;;3.67;2.00;;;;;14.27;79.72;99683.78;5058561;28;45455;-39
2023/09/22 06:43:29;;;;;;;;;2.67;2.33;;;;;14.30;80.19;99678.06;5058504;28;45451;-40
2023/09/22 06:45:58;;;;;;;;;4.33;1.00;;;;;14.37;80.11;99684.28;5058182;28;45986;-41
2023/09/22 06:48:26;;;;;;;;;3.33;1.00;;;;;14.38;79.59;99690.47;5057094;28;45317;-40
2023/09/22 06:50:53;;;;;;;;;4.00;2.33;;;;;14.22;79.44;99654.97;5058446;28;45517;-39
2023/09/22 06:53:19;;;;;;;;;4.00;2.67;;;;;14.38;79.72;99685.94;5057608;28;45325;-40
2023/09/22 06:55:45;;;;;;;;;2.00;2.00;;;;;14.41;79.88;99687.38;5058007;28;47039;-44
2023/09/22 06:58:11;;;;;;;;;1.33;1.00;;;;;14.46;79.29;99685.78;5057863;28;45319;-40
2023/09/22 07:00:36;;;;;;;;;5.00;3.00;;;;;14.45;79.88;99685.94;5058381;28;46009;-37
2023/09/22 07:03:01;;;;;;;;;8.33;4.00;;;;;14.52;80.18;99694.88;5058496;28;45351;-39
2023/09/22 07:05:27;;;;;;;;;4.00;1.67;;;;;14.48;79.89;99685.56;5057729;28;46221;-39
2023/09/22 07:07:52;;;;;;;;;2.00;2.00;;;;;14.50;80.31;99691.59;5057948;28;45490;-40
2023/09/22 07:10:19;;;;;;;;;2.00;1.00;;;;;14.48;80.40;99674.84;5058153;28;45449;-41
2023/09/22 07:12:45;;;;;;;;;2.00;2.00;;;;;14.51;80.24;99685.19;5057997;28;45512;-40
2023/09/22 07:15:10;;;;;;;;;0.67;0.67;;;;;14.47;79.74;99686.59;5057907;28;46140;-41
2023/09/22 07:17:36;;;;;;;;;3.00;2.00;;;;;14.48;80.52;99694.44;5055824;28;45425;-41
2023/09/22 07:20:04;;;;;;;;;1.00;1.00;;;;;14.40;80.57;99667.81;5057701;28;45472;-41
2023/09/22 07:22:32;;;;;;;;;4.33;1.00;;;;;14.56;80.94;99676.56;5057654;28;45450;-41
2023/09/22 07:24:58;;;;;;;;;3.67;3.67;;;;;14.58;81.07;99672.69;5054769;28;47220;-40
2023/09/22 07:27:24;;;;;;;;;4.00;2.00;;;;;14.66;81.06;99679.69;5035649;28;46442;-40
2023/09/22 07:29:50;;;;;;;;;3.00;2.67;;;;;14.73;81.21;99669.84;5034160;28;45427;-40
2023/09/22 07:32:19;;;;;;;;;3.67;2.00;;;;;14.68;80.32;99669.63;5019770;28;45405;-40
2023/09/22 07:34:45;;;;;;;;;3.67;2.33;;;;;14.78;80.55;99664.72;5036858;28;45301;-41
2023/09/22 07:37:11;;;;;;;;;4.67;3.00;;;;;14.81;79.75;99667.00;5055966;28;45365;-41
2023/09/22 07:39:40;;;;;;;;;2.00;2.00;;;;;14.78;79.93;99650.50;5057337;28;45369;-39
2023/09/22 07:42:07;;;;;;;;;4.67;3.00;;;;;14.72;80.58;99654.81;5057315;28;45394;-42
2023/09/22 07:44:34;;;;;;;;;4.00;2.00;;;;;14.82;80.01;99660.63;5056600;28;47316;-40
2023/09/22 07:47:00;;;;;;;;;4.33;4.00;;;;;14.91;80.04;99674.66;5056329;28;45423;-39
2023/09/22 07:49:26;;;;;;;;;4.00;2.33;;;;;14.97;79.70;99669.34;5057296;28;45398;-40
2023/09/22 07:51:52;;;;;;;;;3.33;2.00;;;;;15.03;79.95;99672.22;5056646;28;45564;-40
2023/09/22 07:54:20;;;;;;;;;5.00;3.67;;;;;15.15;80.65;99668.75;5056007;28;46256;-40
2023/09/22 07:56:46;;;;;;;;;9.00;4.67;;;;;15.14;79.51;99659.06;5038679;28;45355;-42
2023/09/22 07:59:14;;;;;;;;;7.33;5.67;;;;;15.27;79.82;99668.16;5056903;28;45311;-39
2023/09/22 08:01:42;;;;;;;;;4.67;4.00;;;;;15.28;78.85;99672.50;5056881;28;45399;-38
2023/09/22 08:04:10;;;;;;;;;6.00;4.00;;;;;15.29;78.42;99671.47;5056563;28;45459;-41
2023/09/22 08:06:36;;;;;;;;;5.00;4.00;;;;;15.29;79.20;99677.63;5056232;28;45363;-40
2023/09/22 08:09:03;;;;;;;;;1.33;1.33;;;;;15.17;78.98;99663.22;5056820;28;45477;-41
2023/09/22 08:11:29;;;;;;;;;5.00;3.33;;;;;15.16;79.63;99662.34;5056984;28;45395;-39
2023/09/22 08:13:55;;;;;;;;;7.67;7.33;;;;;15.19;80.10;99671.84;5056447;28;45511;-40
2023/09/22 08:16:20;;;;;;;;;5.00;5.00;;;;;15.23;80.29;99662.38;5056434;28;45470;-37
2023/09/22 08:18:46;;;;;;;;;8.33;6.00;;;;;15.13;79.23;99652.06;5056547;28;45422;-39
2023/09/22 08:21:12;;;;;;;;;5.33;3.33;;;;;15.32;79.59;99661.16;5038636;28;45432;-38
2023/09/22 08:23:37;;;;;;;;;6.00;4.67;;;;;15.36;79.63;99666.94;5056391;28;47624;-40
2023/09/22 08:26:05;;;;;;;;;6.00;6.00;;;;;15.41;79.40;99672.50;5056195;28;45158;-40
2023/09/22 08:28:32;;;;;;;;;7.00;4.33;;;;;15.30;79.00;99668.59;5056362;28;45334;-40
2023/09/22 08:30:58;;;;;;;;;2.00;1.67;;;;;15.36;79.29;99669.63;5056506;28;45577;-46
2023/09/22 08:33:23;;;;;;;;;4.00;4.00;;;;;15.39;78.71;99663.88;5056007;28;47007;-43
2023/09/22 08:35:49;;;;;;;;;6.00;6.00;;;;;15.46;78.44;99670.03;5056043;28;45671;-40
2023/09/22 08:38:14;;;;;;;;;4.33;4.33;;;;;15.57;78.03;99669.44;5056567;28;45427;-38
2023/09/22 08:40:40;;;;;;;;;2.67;2.00;;;;;15.75;76.77;99657.31;5055770;28;45324;-40
2023/09/22 08:43:05;;;;;;;;;3.00;3.00;;;;;15.88;76.46;99649.25;5055381;28;46408;-45
2023/09/22 08:45:31;;;;;;;;;2.33;2.00;;;;;16.15;75.55;99699.16;5056149;28;45390;-42
2023/09/22 08:47:57;;;;;;;;;2.00;1.00;;;;;16.12;74.54;99675.41;5056306;28;45436;-39
2023/09/22 08:50:22;;;;;;;;;2.33;2.00;;;;;16.13;74.87;99671.69;5056442;28;45403;-39
2023/09/22 08:52:51;;;;;;;;;3.67;1.00;;;;;16.12;74.60;99688.00;5055857;28;46474;-43
2023/09/22 08:55:17;;;;;;;;;2.50;1.00;;;;;16.04;74.35;99672.97;5055373;28;45461;-39
2023/09/22 08:57:47;;;;;;;;;4.00;1.00;;;;;16.13;74.67;99685.13;5055212;28;45323;-39
2023/09/22 09:00:26;;;;;;;;;1.00;1.00;;;;;16.17;74.88;99691.72;5056109;28;45505;-40
2023/09/22 09:02:55;;;;;;;;;0.00;0.00;;;;;16.48;74.25;99698.28;5055901;28;46188;-38
2023/09/22 09:05:30;;;;;;;;;1.00;1.00;;;;;16.85;73.03;99703.94;5055887;28;45268;-38
2023/09/22 09:08:10;;;;;;;;;1.00;1.00;;;;;16.86;72.51;99711.00;5033388;28;45424;-39
2023/09/22 09:10:35;;;;;;;;;0.00;0.00;;;;;16.70;71.01;99707.69;5035854;28;45364;-41
2023/09/22 09:13:03;;;;;;;;;0.00;0.00;;;;;16.52;69.75;99704.03;5035658;28;46196;-38
2023/09/22 09:15:39;;;;;;;;;0.00;0.00;;;;;16.39;69.14;99691.47;5035486;28;45509;-37
2023/09/22 09:18:07;;;;;;;;;0.00;0.00;;;;;16.31;68.63;99681.81;5035650;28;45384;-42
2023/09/22 09:20:34;;;;;;;;;1.00;0.00;;;;;16.49;69.89;99673.06;5036048;28;45204;-42
2023/09/22 09:23:12;;;;;;;;;0.00;0.00;;;;;16.91;69.77;99685.13;5035392;28;46307;-41
2023/09/22 09:25:42;;;;;;;;;0.00;0.00;;;;;17.44;69.39;99697.44;5035204;28;45823;-41
2023/09/22 09:28:08;;;;;;;;;0.00;0.00;;;;;18.02;68.36;99689.16;5035878;28;45934;-41
2023/09/22 09:30:33;;;;;;;;;0.50;0.50;;;;;18.62;66.60;99697.44;5035605;28;45256;-40
2023/09/22 09:33:10;;;;;;;;;0.00;0.00;;;;;19.33;66.23;99687.84;5035472;28;45345;-41
2023/09/22 09:35:41;;;;;;;;;0.25;0.25;;;;;20.15;66.50;99696.13;5042144;28;45347;-39
2023/09/22 09:38:08;;;;;;;;;0.00;0.00;;;;;21.08;61.04;99686.22;5055410;28;45578;-42
2023/09/22 09:40:38;;;;;;;;;0.00;0.00;;;;;21.84;59.49;99689.47;5055624;28;45500;-40
2023/09/22 09:43:12;;;;;;;;;3.60;0.40;;;;;21.84;58.85;99677.81;5055676;28;45929;-39
2023/09/22 09:45:57;;;;;;;;;0.60;0.00;;;;;21.69;59.41;99697.34;5055249;28;45515;-41
2023/09/22 09:48:24;;;;;;;;;0.60;0.00;;;;;21.35;57.92;99701.88;5055676;28;45657;-41
2023/09/22 09:50:52;;;;;;;;;0.00;0.00;;;;;21.28;58.37;99698.47;5055433;28;45504;-40
2023/09/22 09:53:36;;;;;;;;;1.80;0.00;;;;;21.25;58.74;99705.19;5054847;28;46230;-42
2023/09/22 09:56:05;;;;;;;;;0.00;0.00;;;;;21.65;54.26;99699.69;5055118;28;45315;-39
2023/09/22 09:58:32;;;;;;;;;0.00;0.00;;;;;22.24;53.46;99695.78;5055037;28;45434;-41
2023/09/22 10:01:00;;;;;;;;;0.00;0.00;;;;;23.00;51.49;99694.09;5055507;28;45446;-43
2023/09/22 10:03:27;;;;;;;;;1.40;0.00;;;;;23.81;49.80;99693.31;5054554;28;45521;-42
2023/09/22 10:05:56;;;;;;;;;0.00;0.00;;;;;24.63;50.38;99691.94;5055202;28;45481;-43
2023/09/22 10:08:23;;;;;;;;;0.00;0.00;;;;;25.39;49.38;99713.16;5055995;28;45342;-38
2023/09/22 10:10:50;;;;;;;;;0.00;0.00;;;;;25.99;44.97;99722.50;5058917;28;45569;-41
2023/09/22 10:13:16;;;;;;;;;0.00;0.00;;;;;26.47;48.98;99717.56;5058332;28;46251;-38
2023/09/22 10:16:03;;;;;;;;;0.00;0.00;;;;;26.86;44.55;99730.53;5058508;28;45337;-41
2023/09/22 10:18:48;;;;;;;;;0.00;0.00;;;;;27.10;42.92;99725.28;5058407;28;45296;-41
2023/09/22 10:21:29;;;;;;;;;0.00;0.00;;;;;27.76;42.17;99734.97;5058895;28;45431;-40
2023/09/22 10:24:37;;;;;;;;;1.40;0.00;;;;;27.99;41.31;99739.72;5058215;28;47221;-43
2023/09/22 10:27:07;;;;;;;;;0.00;0.00;;;;;27.14;41.83;99756.38;4976449;28;45512;-39
2023/09/22 10:29:33;;;;;;;;;2.40;0.00;;;;;25.92;42.38;99771.00;4976797;28;45427;-41
2023/09/22 10:32:16;;;;;;;;;1.50;0.00;;;;;24.62;45.60;99780.84;4976661;28;45757;-42
2023/09/22 10:35:03;;;;;;;;;0.00;0.00;;;;;26.29;43.24;99784.34;4976255;28;46255;-43
2023/09/22 10:37:32;;;;;;;;;0.00;0.00;;;;;27.20;40.09;99790.72;4975246;28;45408;-45
2023/09/22 10:40:19;;;;;;;;;0.60;0.60;;;;;29.06;37.55;99785.16;4976049;28;45493;-43
2023/09/22 10:42:52;;;;;;;;;0.00;0.00;;;;;30.58;34.05;99800.44;4976398;28;45732;-43
2023/09/22 10:45:21;;;;;;;;;0.00;0.00;;;;;30.73;34.67;99787.59;4976143;28;46371;-44
2023/09/22 10:47:54;;;;;;;;;0.00;0.00;;;;;29.11;35.76;99776.06;4972320;28;45382;-44
2023/09/22 10:50:26;;;;;;;;;0.40;0.00;;;;;27.31;37.78;99802.44;4976325;28;45668;-42
2023/09/22 10:53:00;;;;;;;;;0.00;0.00;;;;;25.81;40.83;99829.28;4976266;28;45513;-43
2023/09/22 10:55:36;;;;;;;;;0.00;0.00;;;;;24.59;42.64;99835.75;4976008;28;47291;-40
2023/09/22 10:58:12;;;;;;;;;0.80;0.80;;;;;23.69;46.08;99845.53;5025010;28;45400;-40
2023/09/22 11:00:39;;;;;;;;;0.20;0.00;;;;;23.45;46.05;99844.94;5057571;28;45336;-39
2023/09/22 11:03:10;;;;;;;;;1.00;0.00;;;;;24.14;45.75;99855.19;5057717;28;45513;-40
2023/09/22 11:05:39;;;;;;;;;0.60;0.60;;;;;24.95;43.83;99859.66;5057309;28;47158;-41
2023/09/22 11:08:16;;;;;;;;;0.00;0.00;;;;;24.38;44.90;99856.53;5057517;28;45411;-39
2023/09/22 11:10:43;;;;;;;;;1.00;0.00;;;;;23.71;45.87;99856.13;5057519;28;45348;-39
2023/09/22 11:13:09;;;;;;;;;1.80;0.60;;;;;22.93;46.76;99850.78;5057322;28;45395;-39
2023/09/22 11:15:35;;;;;;;;;0.00;0.00;;;;;22.64;47.02;99877.16;5057468;28;46032;-37
2023/09/22 11:18:01;;;;;;;;;1.00;0.00;;;;;22.12;48.70;99880.03;5057360;28;45257;-39
2023/09/22 11:20:28;;;;;;;;;2.00;1.00;;;;;21.66;48.88;99865.66;5056206;28;45491;-39
2023/09/22 11:22:55;;;;;;;;;0.40;0.00;;;;;21.49;49.55;99875.56;5057652;28;45531;-40
2023/09/22 11:25:22;;;;;;;;;0.80;0.80;;;;;21.40;49.91;99875.13;5057454;28;46166;-40
2023/09/22 11:27:52;;;;;;;;;3.60;2.00;;;;;21.57;50.18;99889.53;5057360;28;45416;-40
2023/09/22 11:30:27;;;;;;;;;2.40;1.40;;;;;23.24;46.59;99891.88;5056696;28;45479;-39
2023/09/22 11:32:54;;;;;;;;;1.00;0.00;;;;;22.78;46.68;99904.75;5057645;28;45877;-40
2023/09/22 11:35:28;;;;;;;;;1.60;1.20;;;;;22.02;48.16;99918.59;5057065;28;46283;-39